sensor_id;sensor_type;location;lat;lon;timestamp;pressure;altitude;pressure_sealevel;temperature;humidity
12664;BME280;6396;58.490;15.528;2023-08-07T00:00:12;98749.56;;;16.50;100.00
12664;BME280;6396;58.490;15.528;2023-08-07T00:02:39;98937.75;;;17.72;100.00
12664;BME280;6396;58.490;15.528;2023-08-07T00:05:06;98635.69;;;15.98;100.00
12664;BME280;6396;58.490;15.528;2023-08-07T00:07:33;98996.16;;;17.66;100.00
12664;BME280;6396;58.490;15.528;2023-08-07T00:09:59;98906.91;;;17.79;100.00
12664;BME280;6396;58.490;15.528;2023-08-07T00:12:30;98809.69;;;17.19;100.00
12664;BME280;6396;58.490;15.528;2023-08-07T00:14:56;98913.72;;;17.83;100.00
12664;BME280;6396;58.490;15.528;2023-08-07T00:17:23;98669.66;;;16.50;100.00
12664;BME280;6396;58.490;15.528;2023-08-07T00:19:50;98857.63;;;17.52;100.00
12664;BME280;6396;58.490;15.528;2023-08-07T00:22:17;98876.19;;;17.85;100.00
12664;BME280;6396;58.490;15.528;2023-08-07T00:24:43;98476.69;;;15.46;100.00
12664;BME280;6396;58.490;15.528;2023-08-07T00:27:10;98821.59;;;17.57;100.00
12664;BME280;6396;58.490;15.528;2023-08-07T00:29:39;98853.59;;;17.68;100.00
12664;BME280;6396;58.490;15.528;2023-08-07T00:32:06;98785.97;;;17.47;100.00
12664;BME280;6396;58.490;15.528;2023-08-07T00:34:34;98705.63;;;16.98;100.00
12664;BME280;6396;58.490;15.528;2023-08-07T00:37:01;98825.25;;;17.77;100.00
12664;BME280;6396;58.490;15.528;2023-08-07T00:39:28;98636.63;;;16.73;100.00
12664;BME280;6396;58.490;15.528;2023-08-07T00:41:55;98496.28;;;15.56;100.00
12664;BME280;6396;58.490;15.528;2023-08-07T00:44:22;98690.19;;;16.70;100.00
12664;BME280;6396;58.490;15.528;2023-08-07T00:46:51;98172.59;;;13.97;100.00
12664;BME280;6396;58.490;15.528;2023-08-07T00:49:18;98811.84;;;17.88;100.00
12664;BME280;6396;58.490;15.528;2023-08-07T00:51:46;98687.25;;;17.36;100.00
12664;BME280;6396;58.490;15.528;2023-08-07T00:54:15;98700.91;;;17.22;100.00
12664;BME280;6396;58.490;15.528;2023-08-07T00:56:43;98775.13;;;17.80;100.00
12664;BME280;6396;58.490;15.528;2023-08-07T00:59:11;98816.28;;;17.99;100.00
12664;BME280;6396;58.490;15.528;2023-08-07T01:01:39;98734.13;;;17.70;100.00
12664;BME280;6396;58.490;15.528;2023-08-07T01:04:07;98678.16;;;17.39;100.00
12664;BME280;6396;58.490;15.528;2023-08-07T01:06:34;98405.41;;;15.72;100.00
12664;BME280;6396;58.490;15.528;2023-08-07T01:09:01;98809.88;;;18.11;100.00
12664;BME280;6396;58.490;15.528;2023-08-07T01:11:34;98789.22;;;18.13;100.00
12664;BME280;6396;58.490;15.528;2023-08-07T01:14:08;98793.59;;;18.14;100.00
12664;BME280;6396;58.490;15.528;2023-08-07T01:16:39;98455.47;;;16.10;100.00
12664;BME280;6396;58.490;15.528;2023-08-07T01:19:19;98807.53;;;18.17;100.00
12664;BME280;6396;58.490;15.528;2023-08-07T01:22:04;98803.03;;;18.18;100.00
12664;BME280;6396;58.490;15.528;2023-08-07T01:24:31;98783.50;;;18.17;100.00
12664;BME280;6396;58.490;15.528;2023-08-07T01:27:02;98736.03;;;17.79;100.00
12664;BME280;6396;58.490;15.528;2023-08-07T01:29:39;98598.38;;;16.95;100.00
12664;BME280;6396;58.490;15.528;2023-08-07T01:32:11;98364.66;;;15.40;100.00
12664;BME280;6396;58.490;15.528;2023-08-07T01:34:41;98427.63;;;15.82;100.00
12664;BME280;6396;58.490;15.528;2023-08-07T01:37:10;98770.88;;;18.19;100.00
12664;BME280;6396;58.490;15.528;2023-08-07T01:39:39;98667.09;;;17.64;100.00
12664;BME280;6396;58.490;15.528;2023-08-07T01:42:07;98538.75;;;16.75;100.00
12664;BME280;6396;58.490;15.528;2023-08-07T01:44:36;98674.38;;;17.41;100.00
12664;BME280;6396;58.490;15.528;2023-08-07T01:47:03;98617.22;;;17.03;100.00
12664;BME280;6396;58.490;15.528;2023-08-07T01:49:30;98698.66;;;17.38;100.00
12664;BME280;6396;58.490;15.528;2023-08-07T01:51:57;98808.34;;;18.08;100.00
12664;BME280;6396;58.490;15.528;2023-08-07T01:54:25;98472.44;;;16.09;100.00
12664;BME280;6396;58.490;15.528;2023-08-07T01:56:52;98807.19;;;18.11;100.00
12664;BME280;6396;58.490;15.528;2023-08-07T01:59:19;98710.41;;;17.47;100.00
12664;BME280;6396;58.490;15.528;2023-08-07T02:01:45;98795.81;;;18.09;100.00
12664;BME280;6396;58.490;15.528;2023-08-07T02:04:12;98738.56;;;17.81;100.00
12664;BME280;6396;58.490;15.528;2023-08-07T02:06:39;98780.38;;;18.12;100.00
12664;BME280;6396;58.490;15.528;2023-08-07T02:09:05;98792.34;;;18.18;100.00
12664;BME280;6396;58.490;15.528;2023-08-07T02:11:34;98634.31;;;17.52;100.00
12664;BME280;6396;58.490;15.528;2023-08-07T02:14:00;98748.63;;;18.19;100.00
12664;BME280;6396;58.490;15.528;2023-08-07T02:16:28;98760.28;;;18.18;100.00
12664;BME280;6396;58.490;15.528;2023-08-07T02:18:55;98347.34;;;15.77;100.00
12664;BME280;6396;58.490;15.528;2023-08-07T02:21:21;98765.19;;;18.13;100.00
12664;BME280;6396;58.490;15.528;2023-08-07T02:23:48;98474.03;;;16.32;100.00
12664;BME280;6396;58.490;15.528;2023-08-07T02:26:15;98792.16;;;18.10;100.00
12664;BME280;6396;58.490;15.528;2023-08-07T02:28:43;98781.34;;;18.11;100.00
12664;BME280;6396;58.490;15.528;2023-08-07T02:31:10;98758.75;;;18.15;100.00
12664;BME280;6396;58.490;15.528;2023-08-07T02:33:37;98686.28;;;17.78;100.00
12664;BME280;6396;58.490;15.528;2023-08-07T02:36:04;98709.41;;;17.89;100.00
12664;BME280;6396;58.490;15.528;2023-08-07T02:38:30;98689.81;;;17.79;100.00
12664;BME280;6396;58.490;15.528;2023-08-07T02:40:57;98650.59;;;17.79;100.00
12664;BME280;6396;58.490;15.528;2023-08-07T02:43:24;98740.13;;;18.04;100.00
12664;BME280;6396;58.490;15.528;2023-08-07T02:45:52;98602.16;;;17.54;100.00
12664;BME280;6396;58.490;15.528;2023-08-07T02:48:19;98750.75;;;18.25;100.00
12664;BME280;6396;58.490;15.528;2023-08-07T02:50:46;98593.56;;;17.50;100.00
12664;BME280;6396;58.490;15.528;2023-08-07T02:53:13;98730.09;;;18.27;100.00
12664;BME280;6396;58.490;15.528;2023-08-07T02:55:42;98555.91;;;17.03;100.00
12664;BME280;6396;58.490;15.528;2023-08-07T02:58:09;98753.19;;;18.28;100.00
12664;BME280;6396;58.490;15.528;2023-08-07T03:00:36;98737.72;;;18.31;100.00
12664;BME280;6396;58.490;15.528;2023-08-07T03:03:04;98673.91;;;17.77;100.00
12664;BME280;6396;58.490;15.528;2023-08-07T03:05:31;98700.03;;;18.04;100.00
12664;BME280;6396;58.490;15.528;2023-08-07T03:07:58;98685.84;;;18.04;100.00
12664;BME280;6396;58.490;15.528;2023-08-07T03:10:24;98677.16;;;18.11;100.00
12664;BME280;6396;58.490;15.528;2023-08-07T03:12:51;98687.13;;;18.09;100.00
12664;BME280;6396;58.490;15.528;2023-08-07T03:15:18;98686.31;;;18.09;100.00
12664;BME280;6396;58.490;15.528;2023-08-07T03:17:45;98682.13;;;18.16;100.00
12664;BME280;6396;58.490;15.528;2023-08-07T03:20:13;98726.34;;;18.39;100.00
12664;BME280;6396;58.490;15.528;2023-08-07T03:22:40;98532.88;;;17.22;100.00
12664;BME280;6396;58.490;15.528;2023-08-07T03:25:07;98650.72;;;18.08;100.00
12664;BME280;6396;58.490;15.528;2023-08-07T03:27:34;98716.06;;;18.34;100.00
12664;BME280;6396;58.490;15.528;2023-08-07T03:30:00;98619.63;;;17.67;100.00
12664;BME280;6396;58.490;15.528;2023-08-07T03:32:27;98579.88;;;17.64;100.00
12664;BME280;6396;58.490;15.528;2023-08-07T03:34:54;98564.06;;;17.52;100.00
12664;BME280;6396;58.490;15.528;2023-08-07T03:37:22;98719.78;;;18.43;100.00
12664;BME280;6396;58.490;15.528;2023-08-07T03:39:49;98726.94;;;18.42;100.00
12664;BME280;6396;58.490;15.528;2023-08-07T03:42:16;98673.97;;;18.27;100.00
12664;BME280;6396;58.490;15.528;2023-08-07T03:44:43;98754.97;;;18.48;100.00
12664;BME280;6396;58.490;15.528;2023-08-07T03:47:10;98713.72;;;18.41;100.00
12664;BME280;6396;58.490;15.528;2023-08-07T03:49:36;98721.66;;;18.52;100.00
12664;BME280;6396;58.490;15.528;2023-08-07T03:52:04;98707.28;;;18.53;100.00
12664;BME280;6396;58.490;15.528;2023-08-07T03:54:32;98717.72;;;18.56;100.00
12664;BME280;6396;58.490;15.528;2023-08-07T03:56:59;98502.59;;;17.33;100.00
12664;BME280;6396;58.490;15.528;2023-08-07T03:59:25;98512.03;;;17.37;100.00
12664;BME280;6396;58.490;15.528;2023-08-07T04:01:52;98700.03;;;18.64;100.00
12664;BME280;6396;58.490;15.528;2023-08-07T04:04:19;98101.09;;;14.81;100.00
12664;BME280;6396;58.490;15.528;2023-08-07T04:06:47;98463.72;;;17.00;100.00
12664;BME280;6396;58.490;15.528;2023-08-07T04:09:14;98645.16;;;18.21;100.00
12664;BME280;6396;58.490;15.528;2023-08-07T04:11:43;98273.94;;;16.25;100.00
12664;BME280;6396;58.490;15.528;2023-08-07T04:14:10;98670.75;;;18.63;100.00
12664;BME280;6396;58.490;15.528;2023-08-07T04:16:39;98475.81;;;17.44;100.00
12664;BME280;6396;58.490;15.528;2023-08-07T04:19:06;98519.69;;;17.30;100.00
12664;BME280;6396;58.490;15.528;2023-08-07T04:21:34;98719.59;;;18.74;100.00
12664;BME280;6396;58.490;15.528;2023-08-07T04:24:00;97898.97;;;14.02;100.00
12664;BME280;6396;58.490;15.528;2023-08-07T04:26:33;98050.75;;;15.00;100.00
12664;BME280;6396;58.490;15.528;2023-08-07T04:29:02;98427.75;;;17.25;100.00
12664;BME280;6396;58.490;15.528;2023-08-07T04:31:29;98585.47;;;18.11;100.00
12664;BME280;6396;58.490;15.528;2023-08-07T04:33:57;98507.78;;;17.64;100.00
12664;BME280;6396;58.490;15.528;2023-08-07T04:36:24;98338.09;;;16.13;100.00
12664;BME280;6396;58.490;15.528;2023-08-07T04:38:51;98612.91;;;18.13;100.00
12664;BME280;6396;58.490;15.528;2023-08-07T04:41:17;98619.97;;;18.14;100.00
12664;BME280;6396;58.490;15.528;2023-08-07T04:43:44;98652.94;;;18.33;100.00
12664;BME280;6396;58.490;15.528;2023-08-07T04:46:14;98738.06;;;18.87;100.00
12664;BME280;6396;58.490;15.528;2023-08-07T04:48:41;98715.97;;;18.85;100.00
12664;BME280;6396;58.490;15.528;2023-08-07T04:51:08;98386.97;;;17.04;100.00
12664;BME280;6396;58.490;15.528;2023-08-07T04:53:35;98694.13;;;18.89;100.00
12664;BME280;6396;58.490;15.528;2023-08-07T04:56:02;98577.09;;;18.25;100.00
12664;BME280;6396;58.490;15.528;2023-08-07T04:58:29;98644.03;;;18.63;100.00
12664;BME280;6396;58.490;15.528;2023-08-07T05:00:57;98688.53;;;18.92;100.00
12664;BME280;6396;58.490;15.528;2023-08-07T05:03:25;98315.81;;;16.64;100.00
12664;BME280;6396;58.490;15.528;2023-08-07T05:05:58;98273.84;;;16.06;100.00
12664;BME280;6396;58.490;15.528;2023-08-07T05:08:25;98738.22;;;18.95;100.00
12664;BME280;6396;58.490;15.528;2023-08-07T05:10:52;98439.38;;;17.54;100.00
12664;BME280;6396;58.490;15.528;2023-08-07T05:13:18;98599.19;;;18.36;100.00
12664;BME280;6396;58.490;15.528;2023-08-07T05:15:47;98678.97;;;19.00;100.00
12664;BME280;6396;58.490;15.528;2023-08-07T05:18:14;98674.56;;;18.99;100.00
12664;BME280;6396;58.490;15.528;2023-08-07T05:20:42;98234.50;;;16.40;100.00
12664;BME280;6396;58.490;15.528;2023-08-07T05:23:09;98693.03;;;19.02;100.00
12664;BME280;6396;58.490;15.528;2023-08-07T05:25:36;98664.16;;;19.05;100.00
12664;BME280;6396;58.490;15.528;2023-08-07T05:28:03;98609.53;;;18.79;100.00
12664;BME280;6396;58.490;15.528;2023-08-07T05:30:30;98472.47;;;17.91;100.00
12664;BME280;6396;58.490;15.528;2023-08-07T05:32:57;98531.59;;;18.45;100.00
12664;BME280;6396;58.490;15.528;2023-08-07T05:35:24;98651.63;;;19.06;100.00
12664;BME280;6396;58.490;15.528;2023-08-07T05:37:53;98696.72;;;19.10;100.00
12664;BME280;6396;58.490;15.528;2023-08-07T05:40:19;98652.19;;;19.09;100.00
12664;BME280;6396;58.490;15.528;2023-08-07T05:42:46;98390.34;;;17.55;100.00
12664;BME280;6396;58.490;15.528;2023-08-07T05:45:13;98609.97;;;18.84;100.00
12664;BME280;6396;58.490;15.528;2023-08-07T05:47:40;98363.38;;;17.67;100.00
12664;BME280;6396;58.490;15.528;2023-08-07T05:50:08;98671.34;;;19.14;100.00
12664;BME280;6396;58.490;15.528;2023-08-07T05:52:35;98520.19;;;18.43;100.00
12664;BME280;6396;58.490;15.528;2023-08-07T05:55:03;98622.75;;;19.19;100.00
12664;BME280;6396;58.490;15.528;2023-08-07T05:57:30;98571.84;;;18.82;100.00
12664;BME280;6396;58.490;15.528;2023-08-07T05:59:57;98524.28;;;18.66;100.00
12664;BME280;6396;58.490;15.528;2023-08-07T06:02:24;98527.38;;;18.52;100.00
12664;BME280;6396;58.490;15.528;2023-08-07T06:04:52;98262.06;;;17.09;100.00
12664;BME280;6396;58.490;15.528;2023-08-07T06:07:19;98516.53;;;18.54;100.00
12664;BME280;6396;58.490;15.528;2023-08-07T06:09:46;98313.91;;;17.35;100.00
12664;BME280;6396;58.490;15.528;2023-08-07T06:12:14;98634.59;;;19.26;100.00
12664;BME280;6396;58.490;15.528;2023-08-07T06:14:41;98612.47;;;19.24;100.00
12664;BME280;6396;58.490;15.528;2023-08-07T06:17:08;98432.97;;;18.04;100.00
12664;BME280;6396;58.490;15.528;2023-08-07T06:19:35;98550.28;;;18.74;100.00
12664;BME280;6396;58.490;15.528;2023-08-07T06:22:02;98636.25;;;19.27;100.00
12664;BME280;6396;58.490;15.528;2023-08-07T06:24:29;98576.59;;;18.88;100.00
12664;BME280;6396;58.490;15.528;2023-08-07T06:26:55;98611.22;;;19.28;100.00
12664;BME280;6396;58.490;15.528;2023-08-07T06:29:23;98624.44;;;19.29;100.00
12664;BME280;6396;58.490;15.528;2023-08-07T06:31:50;98608.38;;;19.29;100.00
12664;BME280;6396;58.490;15.528;2023-08-07T06:34:17;98593.59;;;19.25;100.00
12664;BME280;6396;58.490;15.528;2023-08-07T06:36:44;98501.75;;;18.50;100.00
12664;BME280;6396;58.490;15.528;2023-08-07T06:39:10;98542.94;;;18.95;100.00
12664;BME280;6396;58.490;15.528;2023-08-07T06:41:37;98539.72;;;19.01;100.00
12664;BME280;6396;58.490;15.528;2023-08-07T06:44:04;98605.69;;;19.39;100.00
12664;BME280;6396;58.490;15.528;2023-08-07T06:46:32;98605.84;;;19.37;100.00
12664;BME280;6396;58.490;15.528;2023-08-07T06:48:59;98597.66;;;19.39;100.00
12664;BME280;6396;58.490;15.528;2023-08-07T06:51:26;98585.84;;;19.41;100.00
12664;BME280;6396;58.490;15.528;2023-08-07T06:53:53;98608.94;;;19.42;100.00
12664;BME280;6396;58.490;15.528;2023-08-07T06:56:19;98534.66;;;18.98;100.00
12664;BME280;6396;58.490;15.528;2023-08-07T06:58:46;98608.66;;;19.45;100.00
12664;BME280;6396;58.490;15.528;2023-08-07T07:01:13;98572.22;;;19.35;100.00
12664;BME280;6396;58.490;15.528;2023-08-07T07:03:41;98581.28;;;19.51;100.00
12664;BME280;6396;58.490;15.528;2023-08-07T07:06:10;98468.34;;;18.82;100.00
12664;BME280;6396;58.490;15.528;2023-08-07T07:08:37;98531.78;;;19.19;100.00
12664;BME280;6396;58.490;15.528;2023-08-07T07:11:04;98570.44;;;19.53;100.00
12664;BME280;6396;58.490;15.528;2023-08-07T07:13:31;98155.94;;;17.03;100.00
12664;BME280;6396;58.490;15.528;2023-08-07T07:15:57;98583.69;;;19.54;100.00
12664;BME280;6396;58.490;15.528;2023-08-07T07:18:25;98548.22;;;19.33;100.00
12664;BME280;6396;58.490;15.528;2023-08-07T07:20:58;98577.19;;;19.57;100.00
12664;BME280;6396;58.490;15.528;2023-08-07T07:23:26;98546.81;;;19.29;100.00
12664;BME280;6396;58.490;15.528;2023-08-07T07:25:53;98507.91;;;18.88;100.00
12664;BME280;6396;58.490;15.528;2023-08-07T07:28:20;98572.69;;;19.57;100.00
12664;BME280;6396;58.490;15.528;2023-08-07T07:30:47;98581.56;;;19.58;100.00
12664;BME280;6396;58.490;15.528;2023-08-07T07:33:15;98261.53;;;17.62;100.00
12664;BME280;6396;58.490;15.528;2023-08-07T07:35:42;98449.63;;;18.82;100.00
12664;BME280;6396;58.490;15.528;2023-08-07T07:38:11;98596.19;;;19.63;100.00
12664;BME280;6396;58.490;15.528;2023-08-07T07:40:37;98490.00;;;18.99;100.00
12664;BME280;6396;58.490;15.528;2023-08-07T07:43:04;98583.50;;;19.65;100.00
12664;BME280;6396;58.490;15.528;2023-08-07T07:45:31;98522.16;;;19.45;100.00
12664;BME280;6396;58.490;15.528;2023-08-07T07:47:59;98531.13;;;19.53;100.00
12664;BME280;6396;58.490;15.528;2023-08-07T07:50:25;98211.34;;;17.95;100.00
12664;BME280;6396;58.490;15.528;2023-08-07T07:52:52;98584.34;;;20.02;100.00
12664;BME280;6396;58.490;15.528;2023-08-07T07:55:21;98573.69;;;20.11;100.00
12664;BME280;6396;58.490;15.528;2023-08-07T07:57:48;98542.84;;;19.79;100.00
12664;BME280;6396;58.490;15.528;2023-08-07T08:00:15;98579.22;;;20.09;100.00
12664;BME280;6396;58.490;15.528;2023-08-07T08:02:44;98491.75;;;19.63;100.00
12664;BME280;6396;58.490;15.528;2023-08-07T08:05:10;98524.78;;;19.81;100.00
12664;BME280;6396;58.490;15.528;2023-08-07T08:07:37;98462.09;;;19.47;100.00
12664;BME280;6396;58.490;15.528;2023-08-07T08:10:06;98498.31;;;19.78;100.00
12664;BME280;6396;58.490;15.528;2023-08-07T08:12:35;98293.59;;;18.47;100.00
12664;BME280;6396;58.490;15.528;2023-08-07T08:15:02;98558.38;;;20.30;100.00
12664;BME280;6396;58.490;15.528;2023-08-07T08:17:29;98454.34;;;19.54;100.00
12664;BME280;6396;58.490;15.528;2023-08-07T08:19:56;98506.94;;;19.99;100.00
12664;BME280;6396;58.490;15.528;2023-08-07T08:22:22;98546.09;;;20.28;100.00
12664;BME280;6396;58.490;15.528;2023-08-07T08:24:49;98506.94;;;19.99;100.00
12664;BME280;6396;58.490;15.528;2023-08-07T08:27:16;98281.91;;;18.38;100.00
12664;BME280;6396;58.490;15.528;2023-08-07T08:29:45;98568.13;;;20.49;100.00
12664;BME280;6396;58.490;15.528;2023-08-07T08:32:12;98502.50;;;19.81;100.00
12664;BME280;6396;58.490;15.528;2023-08-07T08:34:39;98223.78;;;18.04;100.00
12664;BME280;6396;58.490;15.528;2023-08-07T08:37:06;98372.53;;;19.05;100.00
12664;BME280;6396;58.490;15.528;2023-08-07T08:39:33;98469.69;;;19.52;100.00
12664;BME280;6396;58.490;15.528;2023-08-07T08:42:00;98644.19;;;20.48;100.00
12664;BME280;6396;58.490;15.528;2023-08-07T08:44:29;98355.72;;;19.22;100.00
12664;BME280;6396;58.490;15.528;2023-08-07T08:47:00;98569.88;;;20.40;100.00
12664;BME280;6396;58.490;15.528;2023-08-07T08:49:32;98293.06;;;18.70;100.00
12664;BME280;6396;58.490;15.528;2023-08-07T08:52:00;98588.66;;;20.58;100.00
12664;BME280;6396;58.490;15.528;2023-08-07T08:54:27;98213.47;;;18.64;100.00
12664;BME280;6396;58.490;15.528;2023-08-07T08:56:55;98561.63;;;20.69;100.00
12664;BME280;6396;58.490;15.528;2023-08-07T08:59:25;98476.66;;;20.34;100.00
12664;BME280;6396;58.490;15.528;2023-08-07T09:01:52;98431.47;;;20.22;100.00
12664;BME280;6396;58.490;15.528;2023-08-07T09:04:20;98376.69;;;20.07;100.00
12664;BME280;6396;58.490;15.528;2023-08-07T09:06:47;98570.25;;;21.16;100.00
12664;BME280;6396;58.490;15.528;2023-08-07T09:09:14;98579.66;;;21.37;100.00
12664;BME280;6396;58.490;15.528;2023-08-07T09:11:45;98548.72;;;21.33;100.00
12664;BME280;6396;58.490;15.528;2023-08-07T09:14:16;98560.53;;;21.15;100.00
12664;BME280;6396;58.490;15.528;2023-08-07T09:16:43;98552.84;;;21.20;100.00
12664;BME280;6396;58.490;15.528;2023-08-07T09:19:11;98517.47;;;20.81;100.00
12664;BME280;6396;58.490;15.528;2023-08-07T09:21:40;98104.06;;;19.06;100.00
12664;BME280;6396;58.490;15.528;2023-08-07T09:24:06;98453.03;;;22.07;100.00
12664;BME280;6396;58.490;15.528;2023-08-07T09:26:33;98266.47;;;21.36;100.00
12664;BME280;6396;58.490;15.528;2023-08-07T09:29:01;98443.66;;;22.36;100.00
12664;BME280;6396;58.490;15.528;2023-08-07T09:31:28;98292.75;;;21.98;100.00
12664;BME280;6396;58.490;15.528;2023-08-07T09:34:01;98460.72;;;23.47;100.00
12664;BME280;6396;58.490;15.528;2023-08-07T09:36:30;98323.41;;;22.84;100.00
12664;BME280;6396;58.490;15.528;2023-08-07T09:39:00;98318.41;;;23.12;100.00
12664;BME280;6396;58.490;15.528;2023-08-07T09:41:28;98219.22;;;22.93;100.00
12664;BME280;6396;58.490;15.528;2023-08-07T09:43:55;98381.31;;;24.19;100.00
12664;BME280;6396;58.490;15.528;2023-08-07T09:46:23;98122.72;;;22.51;100.00
12664;BME280;6396;58.490;15.528;2023-08-07T09:48:51;98484.84;;;25.08;100.00
12664;BME280;6396;58.490;15.528;2023-08-07T09:51:18;98239.19;;;23.37;100.00
12664;BME280;6396;58.490;15.528;2023-08-07T09:53:46;98472.78;;;24.28;100.00
12664;BME280;6396;58.490;15.528;2023-08-07T09:56:15;98462.38;;;23.95;100.00
12664;BME280;6396;58.490;15.528;2023-08-07T09:58:47;98460.69;;;23.55;100.00
12664;BME280;6396;58.490;15.528;2023-08-07T10:01:15;98288.53;;;22.12;100.00
12664;BME280;6396;58.490;15.528;2023-08-07T10:03:43;98193.66;;;21.39;100.00
12664;BME280;6396;58.490;15.528;2023-08-07T10:06:10;97990.81;;;20.40;100.00
12664;BME280;6396;58.490;15.528;2023-08-07T10:08:38;98467.22;;;22.90;100.00
12664;BME280;6396;58.490;15.528;2023-08-07T10:11:08;98517.34;;;22.91;100.00
12664;BME280;6396;58.490;15.528;2023-08-07T10:13:36;98553.34;;;22.82;100.00
12664;BME280;6396;58.490;15.528;2023-08-07T10:16:04;98501.22;;;22.83;100.00
12664;BME280;6396;58.490;15.528;2023-08-07T10:18:30;98492.97;;;22.76;100.00
12664;BME280;6396;58.490;15.528;2023-08-07T10:20:57;98381.28;;;22.48;100.00
12664;BME280;6396;58.490;15.528;2023-08-07T10:23:26;98163.84;;;20.92;100.00
12664;BME280;6396;58.490;15.528;2023-08-07T10:25:54;98326.00;;;22.62;100.00
12664;BME280;6396;58.490;15.528;2023-08-07T10:28:22;98459.50;;;23.50;100.00
12664;BME280;6396;58.490;15.528;2023-08-07T10:30:52;98465.53;;;23.68;100.00
12664;BME280;6396;58.490;15.528;2023-08-07T10:33:20;98465.94;;;23.49;100.00
12664;BME280;6396;58.490;15.528;2023-08-07T10:35:47;98309.00;;;22.53;100.00
12664;BME280;6396;58.490;15.528;2023-08-07T10:38:15;98479.44;;;23.33;100.00
12664;BME280;6396;58.490;15.528;2023-08-07T10:41:06;98437.47;;;22.75;100.00
12664;BME280;6396;58.490;15.528;2023-08-07T10:43:36;98409.53;;;22.52;100.00
12664;BME280;6396;58.490;15.528;2023-08-07T10:46:05;98257.09;;;21.64;100.00
12664;BME280;6396;58.490;15.528;2023-08-07T10:48:40;98472.94;;;22.87;100.00
12664;BME280;6396;58.490;15.528;2023-08-07T10:51:07;98476.13;;;22.90;100.00
12664;BME280;6396;58.490;15.528;2023-08-07T10:53:35;98476.94;;;23.31;100.00
12664;BME280;6396;58.490;15.528;2023-08-07T10:56:03;98405.34;;;22.66;100.00
12664;BME280;6396;58.490;15.528;2023-08-07T10:58:33;98456.63;;;22.80;100.00
12664;BME280;6396;58.490;15.528;2023-08-07T11:01:22;98385.66;;;21.85;100.00
12664;BME280;6396;58.490;15.528;2023-08-07T11:03:50;98433.91;;;22.35;100.00
12664;BME280;6396;58.490;15.528;2023-08-07T11:06:18;98484.41;;;22.57;100.00
12664;BME280;6396;58.490;15.528;2023-08-07T11:08:44;98437.28;;;22.37;100.00
12664;BME280;6396;58.490;15.528;2023-08-07T11:11:11;98446.38;;;22.68;100.00
12664;BME280;6396;58.490;15.528;2023-08-07T11:13:38;98342.31;;;22.12;100.00
12664;BME280;6396;58.490;15.528;2023-08-07T11:16:05;98486.75;;;22.68;100.00
12664;BME280;6396;58.490;15.528;2023-08-07T11:18:34;98481.81;;;22.47;100.00
12664;BME280;6396;58.490;15.528;2023-08-07T11:21:04;98467.88;;;22.44;100.00
12664;BME280;6396;58.490;15.528;2023-08-07T11:23:30;98453.75;;;22.42;100.00
12664;BME280;6396;58.490;15.528;2023-08-07T11:25:57;98445.16;;;22.22;100.00
12664;BME280;6396;58.490;15.528;2023-08-07T11:28:24;98071.34;;;20.23;100.00
12664;BME280;6396;58.490;15.528;2023-08-07T11:30:52;98241.66;;;21.58;100.00
12664;BME280;6396;58.490;15.528;2023-08-07T11:33:21;98195.31;;;21.24;100.00
12664;BME280;6396;58.490;15.528;2023-08-07T11:35:50;98391.22;;;22.15;100.00
12664;BME280;6396;58.490;15.528;2023-08-07T11:38:29;98324.28;;;21.72;100.00
12664;BME280;6396;58.490;15.528;2023-08-07T11:40:57;98073.09;;;20.06;100.00
12664;BME280;6396;58.490;15.528;2023-08-07T11:43:27;98004.84;;;19.43;100.00
12664;BME280;6396;58.490;15.528;2023-08-07T11:45:54;98475.59;;;22.47;100.00
12664;BME280;6396;58.490;15.528;2023-08-07T11:48:23;98183.44;;;20.77;100.00
12664;BME280;6396;58.490;15.528;2023-08-07T11:51:01;98437.59;;;22.09;100.00
12664;BME280;6396;58.490;15.528;2023-08-07T11:53:31;98443.47;;;22.21;100.00
12664;BME280;6396;58.490;15.528;2023-08-07T11:56:00;98409.84;;;22.01;100.00
12664;BME280;6396;58.490;15.528;2023-08-07T11:58:34;98063.84;;;20.34;100.00
12664;BME280;6396;58.490;15.528;2023-08-07T12:01:04;98435.06;;;22.48;100.00
12664;BME280;6396;58.490;15.528;2023-08-07T12:03:32;98036.97;;;19.76;100.00
12664;BME280;6396;58.490;15.528;2023-08-07T12:06:05;98427.50;;;22.11;100.00
12664;BME280;6396;58.490;15.528;2023-08-07T12:08:35;97953.97;;;19.35;100.00
12664;BME280;6396;58.490;15.528;2023-08-07T12:11:03;97964.03;;;19.15;100.00
12664;BME280;6396;58.490;15.528;2023-08-07T12:13:33;98177.59;;;20.32;100.00
12664;BME280;6396;58.490;15.528;2023-08-07T12:16:01;97789.16;;;17.98;100.00
12664;BME280;6396;58.490;15.528;2023-08-07T12:18:31;97679.22;;;17.76;100.00
12664;BME280;6396;58.490;15.528;2023-08-07T12:21:04;97805.09;;;18.84;100.00
12664;BME280;6396;58.490;15.528;2023-08-07T12:23:33;98048.63;;;20.43;100.00
12664;BME280;6396;58.490;15.528;2023-08-07T12:26:00;98417.63;;;22.44;100.00
12664;BME280;6396;58.490;15.528;2023-08-07T12:28:29;98316.38;;;21.05;100.00
12664;BME280;6396;58.490;15.528;2023-08-07T12:30:56;98155.50;;;20.38;100.00
12664;BME280;6396;58.490;15.528;2023-08-07T12:33:23;98019.13;;;19.26;100.00
12664;BME280;6396;58.490;15.528;2023-08-07T12:35:50;98502.44;;;21.73;100.00
12664;BME280;6396;58.490;15.528;2023-08-07T12:38:25;97694.72;;;16.85;100.00
12664;BME280;6396;58.490;15.528;2023-08-07T12:40:56;97745.03;;;17.15;100.00
12664;BME280;6396;58.490;15.528;2023-08-07T12:43:26;97840.75;;;17.36;100.00
12664;BME280;6396;58.490;15.528;2023-08-07T12:45:53;98436.66;;;21.43;100.00
12664;BME280;6396;58.490;15.528;2023-08-07T12:48:30;98041.09;;;19.12;100.00
12664;BME280;6396;58.490;15.528;2023-08-07T12:51:07;98033.34;;;18.65;100.00
12664;BME280;6396;58.490;15.528;2023-08-07T12:53:36;98470.63;;;21.52;100.00